sensor_id;sensor_type;location;lat;lon;timestamp;P1;durP1;ratioP1;P2;durP2;ratioP2
53287;SDS011;39172;45.550;12.072;2023-02-02T06:48:06;73.75;;;38.67;;
53287;SDS011;39172;45.550;12.072;2023-02-02T06:54:10;75.18;;;39.85;;
53287;SDS011;39172;45.550;12.072;2023-02-02T07:00:11;68.30;;;35.08;;
53287;SDS011;39172;45.550;12.072;2023-02-02T07:06:20;60.80;;;31.63;;
53287;SDS011;39172;45.550;12.072;2023-02-02T07:12:21;81.45;;;41.40;;
53287;SDS011;39172;45.550;12.072;2023-02-02T07:18:23;79.10;;;40.85;;
53287;SDS011;39172;45.550;12.072;2023-02-02T07:24:24;74.57;;;38.40;;
53287;SDS011;39172;45.550;12.072;2023-02-02T07:30:27;81.93;;;41.95;;
53287;SDS011;39172;45.550;12.072;2023-02-02T07:36:29;83.47;;;43.20;;
53287;SDS011;39172;45.550;12.072;2023-02-02T07:42:30;76.00;;;38.80;;
53287;SDS011;39172;45.550;12.072;2023-02-02T07:48:30;63.67;;;33.63;;
53287;SDS011;39172;45.550;12.072;2023-02-02T07:54:31;62.92;;;32.70;;
53287;SDS011;39172;45.550;12.072;2023-02-02T08:00:32;59.28;;;29.90;;
53287;SDS011;39172;45.550;12.072;2023-02-02T08:06:36;53.08;;;28.33;;
53287;SDS011;39172;45.550;12.072;2023-02-02T08:12:38;52.40;;;28.45;;
53287;SDS011;39172;45.550;12.072;2023-02-02T08:18:38;50.55;;;27.27;;
53287;SDS011;39172;45.550;12.072;2023-02-02T08:24:39;66.10;;;35.03;;
53287;SDS011;39172;45.550;12.072;2023-02-02T08:30:42;75.60;;;37.13;;
53287;SDS011;39172;45.550;12.072;2023-02-02T08:36:43;59.00;;;30.67;;
53287;SDS011;39172;45.550;12.072;2023-02-02T08:42:44;58.95;;;30.98;;
53287;SDS011;39172;45.550;12.072;2023-02-02T08:48:47;76.88;;;39.20;;
53287;SDS011;39172;45.550;12.072;2023-02-02T08:54:48;68.75;;;35.80;;
53287;SDS011;39172;45.550;12.072;2023-02-02T09:00:48;105.55;;;51.17;;
53287;SDS011;39172;45.550;12.072;2023-02-02T09:06:49;86.88;;;44.42;;
53287;SDS011;39172;45.550;12.072;2023-02-02T09:12:50;77.95;;;39.30;;
53287;SDS011;39172;45.550;12.072;2023-02-02T09:18:51;81.65;;;42.53;;
53287;SDS011;39172;45.550;12.072;2023-02-02T09:24:52;82.72;;;42.53;;
53287;SDS011;39172;45.550;12.072;2023-02-02T09:30:53;81.20;;;40.38;;
53287;SDS011;39172;45.550;12.072;2023-02-02T09:36:54;71.93;;;37.65;;
53287;SDS011;39172;45.550;12.072;2023-02-02T09:43:05;62.08;;;31.92;;
53287;SDS011;39172;45.550;12.072;2023-02-02T09:49:08;55.42;;;28.80;;
53287;SDS011;39172;45.550;12.072;2023-02-02T09:55:31;54.15;;;28.65;;
53287;SDS011;39172;45.550;12.072;2023-02-02T10:01:35;50.88;;;27.38;;
53287;SDS011;39172;45.550;12.072;2023-02-02T10:07:39;49.65;;;26.30;;
53287;SDS011;39172;45.550;12.072;2023-02-02T10:13:41;58.50;;;31.42;;
53287;SDS011;39172;45.550;12.072;2023-02-02T10:19:43;57.38;;;31.23;;
53287;SDS011;39172;45.550;12.072;2023-02-02T10:25:47;63.42;;;32.80;;
53287;SDS011;39172;45.550;12.072;2023-02-02T10:44:36;56.97;;;30.92;;
53287;SDS011;39172;45.550;12.072;2023-02-02T10:50:42;73.32;;;37.55;;
53287;SDS011;39172;45.550;12.072;2023-02-02T10:56:44;78.18;;;39.88;;
53287;SDS011;39172;45.550;12.072;2023-02-02T11:02:51;65.20;;;33.22;;
53287;SDS011;39172;45.550;12.072;2023-02-02T11:08:53;61.20;;;30.95;;
53287;SDS011;39172;45.550;12.072;2023-02-02T11:14:59;77.85;;;39.15;;
53287;SDS011;39172;45.550;12.072;2023-02-02T11:21:01;54.70;;;28.75;;
53287;SDS011;39172;45.550;12.072;2023-02-02T11:27:16;83.07;;;39.72;;
53287;SDS011;39172;45.550;12.072;2023-02-02T11:33:26;72.82;;;35.47;;
53287;SDS011;39172;45.550;12.072;2023-02-02T11:39:27;69.28;;;34.63;;
53287;SDS011;39172;45.550;12.072;2023-02-02T11:45:35;52.33;;;27.67;;
53287;SDS011;39172;45.550;12.072;2023-02-02T11:51:36;57.25;;;28.98;;
53287;SDS011;39172;45.550;12.072;2023-02-02T11:57:37;55.17;;;28.35;;
53287;SDS011;39172;45.550;12.072;2023-02-02T12:03:38;49.00;;;26.55;;
53287;SDS011;39172;45.550;12.072;2023-02-02T12:09:39;70.70;;;34.78;;
53287;SDS011;39172;45.550;12.072;2023-02-02T12:21:52;56.72;;;28.83;;
53287;SDS011;39172;45.550;12.072;2023-02-02T13:11:56;117.13;;;57.87;;
53287;SDS011;39172;45.550;12.072;2023-02-02T13:18:02;122.90;;;59.58;;
53287;SDS011;39172;45.550;12.072;2023-02-02T13:24:05;90.30;;;45.30;;
53287;SDS011;39172;45.550;12.072;2023-02-02T13:36:17;114.45;;;55.95;;
53287;SDS011;39172;45.550;12.072;2023-02-02T13:42:37;146.73;;;72.63;;
53287;SDS011;39172;45.550;12.072;2023-02-02T13:48:48;105.03;;;54.42;;
53287;SDS011;39172;45.550;12.072;2023-02-02T13:55:14;110.18;;;55.17;;
53287;SDS011;39172;45.550;12.072;2023-02-02T14:01:17;106.55;;;54.60;;
53287;SDS011;39172;45.550;12.072;2023-02-02T14:07:23;94.53;;;49.13;;
53287;SDS011;39172;45.550;12.072;2023-02-02T14:13:28;108.03;;;53.38;;
53287;SDS011;39172;45.550;12.072;2023-02-02T14:26:03;88.05;;;43.38;;
53287;SDS011;39172;45.550;12.072;2023-02-02T14:44:35;111.78;;;55.03;;
53287;SDS011;39172;45.550;12.072;2023-02-02T14:56:40;109.20;;;54.92;;
53287;SDS011;39172;45.550;12.072;2023-02-02T15:02:42;100.88;;;49.95;;
53287;SDS011;39172;45.550;12.072;2023-02-02T15:08:43;98.55;;;50.30;;
53287;SDS011;39172;45.550;12.072;2023-02-02T15:14:46;100.88;;;51.33;;
53287;SDS011;39172;45.550;12.072;2023-02-02T15:20:48;99.65;;;50.42;;
53287;SDS011;39172;45.550;12.072;2023-02-02T15:26:51;115.13;;;58.80;;
53287;SDS011;39172;45.550;12.072;2023-02-02T15:32:54;112.75;;;56.10;;
53287;SDS011;39172;45.550;12.072;2023-02-02T15:38:57;92.30;;;47.67;;
53287;SDS011;39172;45.550;12.072;2023-02-02T15:44:58;86.10;;;44.75;;
53287;SDS011;39172;45.550;12.072;2023-02-02T15:51:01;87.18;;;44.47;;
53287;SDS011;39172;45.550;12.072;2023-02-02T15:57:03;86.78;;;44.78;;
53287;SDS011;39172;45.550;12.072;2023-02-02T16:03:22;71.20;;;37.33;;
53287;SDS011;39172;45.550;12.072;2023-02-02T16:09:26;76.82;;;39.15;;
53287;SDS011;39172;45.550;12.072;2023-02-02T16:15:29;80.28;;;40.85;;
53287;SDS011;39172;45.550;12.072;2023-02-02T16:21:41;68.47;;;35.92;;
53287;SDS011;39172;45.550;12.072;2023-02-02T16:27:44;58.80;;;31.42;;
53287;SDS011;39172;45.550;12.072;2023-02-02T16:33:45;72.68;;;37.58;;
53287;SDS011;39172;45.550;12.072;2023-02-02T16:39:47;67.65;;;35.13;;
53287;SDS011;39172;45.550;12.072;2023-02-02T16:45:52;46.20;;;24.70;;
53287;SDS011;39172;45.550;12.072;2023-02-02T16:52:10;60.28;;;32.30;;
53287;SDS011;39172;45.550;12.072;2023-02-02T16:58:20;65.20;;;32.17;;
53287;SDS011;39172;45.550;12.072;2023-02-02T17:04:29;46.30;;;24.10;;
53287;SDS011;39172;45.550;12.072;2023-02-02T17:10:32;47.67;;;26.13;;
53287;SDS011;39172;45.550;12.072;2023-02-02T17:16:33;32.75;;;18.05;;
53287;SDS011;39172;45.550;12.072;2023-02-02T17:22:38;39.78;;;21.70;;
53287;SDS011;39172;45.550;12.072;2023-02-02T17:28:40;47.03;;;24.73;;
53287;SDS011;39172;45.550;12.072;2023-02-02T17:34:41;71.90;;;37.08;;
53287;SDS011;39172;45.550;12.072;2023-02-02T17:40:41;40.78;;;23.30;;
53287;SDS011;39172;45.550;12.072;2023-02-02T17:46:42;42.35;;;23.63;;
53287;SDS011;39172;45.550;12.072;2023-02-02T17:52:44;40.03;;;22.15;;
53287;SDS011;39172;45.550;12.072;2023-02-02T17:58:45;39.72;;;21.35;;
53287;SDS011;39172;45.550;12.072;2023-02-02T18:04:46;47.60;;;26.30;;
53287;SDS011;39172;45.550;12.072;2023-02-02T18:10:47;50.47;;;27.85;;
53287;SDS011;39172;45.550;12.072;2023-02-02T18:16:48;115.78;;;58.72;;
53287;SDS011;39172;45.550;12.072;2023-02-02T18:22:49;57.00;;;30.33;;
53287;SDS011;39172;45.550;12.072;2023-02-02T18:28:50;56.72;;;30.67;;
53287;SDS011;39172;45.550;12.072;2023-02-02T18:34:51;57.53;;;31.10;;
53287;SDS011;39172;45.550;12.072;2023-02-02T18:40:55;91.90;;;46.83;;
53287;SDS011;39172;45.550;12.072;2023-02-02T18:46:56;71.15;;;37.85;;
53287;SDS011;39172;45.550;12.072;2023-02-02T18:52:57;72.95;;;37.75;;
53287;SDS011;39172;45.550;12.072;2023-02-02T18:58:58;65.03;;;35.75;;
53287;SDS011;39172;45.550;12.072;2023-02-02T19:04:59;57.25;;;31.58;;
53287;SDS011;39172;45.550;12.072;2023-02-02T19:11:19;65.65;;;35.35;;
53287;SDS011;39172;45.550;12.072;2023-02-02T19:17:20;67.20;;;37.13;;
53287;SDS011;39172;45.550;12.072;2023-02-02T19:23:22;78.68;;;42.92;;
53287;SDS011;39172;45.550;12.072;2023-02-02T19:29:24;71.80;;;39.50;;
53287;SDS011;39172;45.550;12.072;2023-02-02T19:35:25;74.40;;;40.63;;
53287;SDS011;39172;45.550;12.072;2023-02-02T19:41:28;64.20;;;36.60;;
53287;SDS011;39172;45.550;12.072;2023-02-02T19:47:32;59.63;;;33.33;;
53287;SDS011;39172;45.550;12.072;2023-02-02T19:53:36;57.53;;;31.85;;
53287;SDS011;39172;45.550;12.072;2023-02-02T19:59:41;55.20;;;31.10;;
53287;SDS011;39172;45.550;12.072;2023-02-02T20:05:43;50.15;;;28.38;;
53287;SDS011;39172;45.550;12.072;2023-02-02T20:11:47;48.75;;;27.17;;
53287;SDS011;39172;45.550;12.072;2023-02-02T20:17:50;44.78;;;26.13;;
53287;SDS011;39172;45.550;12.072;2023-02-02T20:23:53;57.92;;;32.08;;
53287;SDS011;39172;45.550;12.072;2023-02-02T20:29:57;51.70;;;28.85;;
53287;SDS011;39172;45.550;12.072;2023-02-02T20:36:01;74.72;;;40.95;;
53287;SDS011;39172;45.550;12.072;2023-02-02T20:42:02;76.10;;;40.78;;
53287;SDS011;39172;45.550;12.072;2023-02-02T20:48:03;70.60;;;39.08;;
53287;SDS011;39172;45.550;12.072;2023-02-02T20:54:04;58.80;;;33.08;;
53287;SDS011;39172;45.550;12.072;2023-02-02T21:00:06;63.80;;;35.33;;
53287;SDS011;39172;45.550;12.072;2023-02-02T21:06:08;96.50;;;51.92;;
53287;SDS011;39172;45.550;12.072;2023-02-02T21:12:09;89.55;;;47.50;;
53287;SDS011;39172;45.550;12.072;2023-02-02T21:18:10;131.50;;;72.15;;
53287;SDS011;39172;45.550;12.072;2023-02-02T21:24:11;98.53;;;52.85;;
53287;SDS011;39172;45.550;12.072;2023-02-02T21:30:12;141.27;;;73.65;;
53287;SDS011;39172;45.550;12.072;2023-02-02T21:36:22;116.53;;;60.67;;
53287;SDS011;39172;45.550;12.072;2023-02-02T21:42:25;129.82;;;71.53;;
53287;SDS011;39172;45.550;12.072;2023-02-02T21:48:28;128.77;;;70.13;;
53287;SDS011;39172;45.550;12.072;2023-02-02T21:54:34;114.68;;;62.00;;
53287;SDS011;39172;45.550;12.072;2023-02-02T22:00:36;123.47;;;66.05;;
53287;SDS011;39172;45.550;12.072;2023-02-02T22:06:37;127.97;;;67.20;;
53287;SDS011;39172;45.550;12.072;2023-02-02T22:12:39;112.50;;;58.55;;
53287;SDS011;39172;45.550;12.072;2023-02-02T22:18:41;107.57;;;57.15;;
53287;SDS011;39172;45.550;12.072;2023-02-02T22:24:45;103.30;;;55.05;;
53287;SDS011;39172;45.550;12.072;2023-02-02T22:30:51;104.60;;;53.70;;
53287;SDS011;39172;45.550;12.072;2023-02-02T22:36:52;99.22;;;50.92;;
53287;SDS011;39172;45.550;12.072;2023-02-02T22:42:54;96.47;;;50.83;;
53287;SDS011;39172;45.550;12.072;2023-02-02T22:48:55;95.85;;;48.28;;
53287;SDS011;39172;45.550;12.072;2023-02-02T22:54:56;103.07;;;53.90;;
53287;SDS011;39172;45.550;12.072;2023-02-02T23:00:57;94.88;;;47.58;;
53287;SDS011;39172;45.550;12.072;2023-02-02T23:06:58;97.75;;;49.45;;
53287;SDS011;39172;45.550;12.072;2023-02-02T23:12:58;97.70;;;49.10;;
53287;SDS011;39172;45.550;12.072;2023-02-02T23:18:59;101.22;;;51.22;;
53287;SDS011;39172;45.550;12.072;2023-02-02T23:25:01;96.25;;;46.88;;
53287;SDS011;39172;45.550;12.072;2023-02-02T23:31:02;91.57;;;48.25;;
53287;SDS011;39172;45.550;12.072;2023-02-02T23:37:03;85.80;;;44.42;;
53287;SDS011;39172;45.550;12.072;2023-02-02T23:43:04;73.50;;;38.10;;
53287;SDS011;39172;45.550;12.072;2023-02-02T23:49:05;90.95;;;46.47;;
53287;SDS011;39172;45.550;12.072;2023-02-02T23:55:06;67.95;;;35.30;;
